sensor_id;sensor_type;location;lat;lon;timestamp;P1;durP1;ratioP1;P2;durP2;ratioP2
12151;SDS011;6139;51.274;7.128;2023-09-30T00:00:57;11.70;;;4.57;;
12151;SDS011;6139;51.274;7.128;2023-09-30T00:01:59;12.05;;;4.00;;
12151;SDS011;6139;51.274;7.128;2023-09-30T00:03:00;8.77;;;4.00;;
12151;SDS011;6139;51.274;7.128;2023-09-30T00:04:02;9.52;;;4.88;;
12151;SDS011;6139;51.274;7.128;2023-09-30T00:05:05;9.35;;;4.18;;
12151;SDS011;6139;51.274;7.128;2023-09-30T00:06:08;7.22;;;3.08;;
12151;SDS011;6139;51.274;7.128;2023-09-30T00:07:09;7.75;;;3.88;;
12151;SDS011;6139;51.274;7.128;2023-09-30T00:08:10;9.43;;;3.92;;
12151;SDS011;6139;51.274;7.128;2023-09-30T00:09:12;13.02;;;3.90;;
12151;SDS011;6139;51.274;7.128;2023-09-30T00:10:15;12.27;;;4.18;;
12151;SDS011;6139;51.274;7.128;2023-09-30T00:11:17;13.45;;;4.35;;
12151;SDS011;6139;51.274;7.128;2023-09-30T00:12:18;9.30;;;4.07;;
12151;SDS011;6139;51.274;7.128;2023-09-30T00:13:21;12.43;;;4.20;;
12151;SDS011;6139;51.274;7.128;2023-09-30T00:14:22;10.52;;;4.05;;
12151;SDS011;6139;51.274;7.128;2023-09-30T00:15:24;10.52;;;4.30;;
12151;SDS011;6139;51.274;7.128;2023-09-30T00:16:25;11.15;;;4.20;;
12151;SDS011;6139;51.274;7.128;2023-09-30T00:17:27;12.75;;;4.63;;
12151;SDS011;6139;51.274;7.128;2023-09-30T00:18:28;9.80;;;4.20;;
12151;SDS011;6139;51.274;7.128;2023-09-30T00:19:30;11.52;;;4.43;;
12151;SDS011;6139;51.274;7.128;2023-09-30T00:20:33;11.63;;;3.97;;
12151;SDS011;6139;51.274;7.128;2023-09-30T00:21:35;12.68;;;4.50;;
12151;SDS011;6139;51.274;7.128;2023-09-30T00:22:36;11.90;;;4.47;;
12151;SDS011;6139;51.274;7.128;2023-09-30T00:23:38;11.07;;;4.53;;
12151;SDS011;6139;51.274;7.128;2023-09-30T00:24:39;15.25;;;5.50;;
12151;SDS011;6139;51.274;7.128;2023-09-30T00:25:42;10.15;;;4.18;;
12151;SDS011;6139;51.274;7.128;2023-09-30T00:26:44;9.32;;;4.85;;
12151;SDS011;6139;51.274;7.128;2023-09-30T00:27:46;8.35;;;4.15;;
12151;SDS011;6139;51.274;7.128;2023-09-30T00:28:47;9.40;;;4.32;;
12151;SDS011;6139;51.274;7.128;2023-09-30T00:29:49;9.93;;;4.43;;
12151;SDS011;6139;51.274;7.128;2023-09-30T00:30:50;10.70;;;4.57;;
12151;SDS011;6139;51.274;7.128;2023-09-30T00:31:52;11.07;;;4.50;;
12151;SDS011;6139;51.274;7.128;2023-09-30T00:32:53;10.27;;;4.80;;
12151;SDS011;6139;51.274;7.128;2023-09-30T00:33:55;7.50;;;4.13;;
12151;SDS011;6139;51.274;7.128;2023-09-30T00:34:56;8.70;;;4.30;;
12151;SDS011;6139;51.274;7.128;2023-09-30T00:35:58;11.10;;;4.63;;
12151;SDS011;6139;51.274;7.128;2023-09-30T00:36:59;11.00;;;4.45;;
12151;SDS011;6139;51.274;7.128;2023-09-30T00:38:00;10.35;;;4.88;;
12151;SDS011;6139;51.274;7.128;2023-09-30T00:39:02;9.98;;;4.53;;
12151;SDS011;6139;51.274;7.128;2023-09-30T00:40:04;12.02;;;5.22;;
12151;SDS011;6139;51.274;7.128;2023-09-30T00:41:08;10.35;;;4.65;;
12151;SDS011;6139;51.274;7.128;2023-09-30T00:42:09;12.15;;;4.78;;
12151;SDS011;6139;51.274;7.128;2023-09-30T00:43:17;9.65;;;5.10;;
12151;SDS011;6139;51.274;7.128;2023-09-30T00:44:18;11.70;;;4.85;;
12151;SDS011;6139;51.274;7.128;2023-09-30T00:45:20;12.02;;;5.10;;
12151;SDS011;6139;51.274;7.128;2023-09-30T00:46:25;12.75;;;5.00;;
12151;SDS011;6139;51.274;7.128;2023-09-30T00:47:29;12.63;;;5.45;;
12151;SDS011;6139;51.274;7.128;2023-09-30T00:48:31;11.35;;;5.18;;
12151;SDS011;6139;51.274;7.128;2023-09-30T00:49:34;11.43;;;4.97;;
12151;SDS011;6139;51.274;7.128;2023-09-30T00:50:35;13.70;;;6.25;;
12151;SDS011;6139;51.274;7.128;2023-09-30T00:51:37;9.93;;;5.20;;
12151;SDS011;6139;51.274;7.128;2023-09-30T00:52:39;13.52;;;5.82;;
12151;SDS011;6139;51.274;7.128;2023-09-30T00:53:42;11.75;;;5.50;;
12151;SDS011;6139;51.274;7.128;2023-09-30T00:54:43;12.15;;;5.22;;
12151;SDS011;6139;51.274;7.128;2023-09-30T00:55:46;9.48;;;5.22;;
12151;SDS011;6139;51.274;7.128;2023-09-30T00:56:49;8.88;;;5.47;;
12151;SDS011;6139;51.274;7.128;2023-09-30T00:57:53;12.15;;;5.43;;
12151;SDS011;6139;51.274;7.128;2023-09-30T00:58:54;13.35;;;5.63;;
12151;SDS011;6139;51.274;7.128;2023-09-30T00:59:57;10.95;;;5.32;;
12151;SDS011;6139;51.274;7.128;2023-09-30T01:00:58;11.20;;;5.88;;
12151;SDS011;6139;51.274;7.128;2023-09-30T01:02:00;13.55;;;5.18;;
12151;SDS011;6139;51.274;7.128;2023-09-30T01:03:05;12.02;;;4.70;;
12151;SDS011;6139;51.274;7.128;2023-09-30T01:04:07;9.35;;;4.95;;
12151;SDS011;6139;51.274;7.128;2023-09-30T01:05:10;12.18;;;5.78;;
12151;SDS011;6139;51.274;7.128;2023-09-30T01:06:11;12.05;;;5.57;;
12151;SDS011;6139;51.274;7.128;2023-09-30T01:07:13;11.25;;;5.07;;
12151;SDS011;6139;51.274;7.128;2023-09-30T01:08:14;10.20;;;5.15;;
12151;SDS011;6139;51.274;7.128;2023-09-30T01:09:17;10.18;;;5.50;;
12151;SDS011;6139;51.274;7.128;2023-09-30T01:10:18;12.15;;;5.53;;
12151;SDS011;6139;51.274;7.128;2023-09-30T01:11:20;13.60;;;5.57;;
12151;SDS011;6139;51.274;7.128;2023-09-30T01:12:23;11.63;;;5.30;;
12151;SDS011;6139;51.274;7.128;2023-09-30T01:13:31;11.35;;;4.97;;
12151;SDS011;6139;51.274;7.128;2023-09-30T01:14:34;12.25;;;5.03;;
12151;SDS011;6139;51.274;7.128;2023-09-30T01:15:38;10.73;;;5.18;;
12151;SDS011;6139;51.274;7.128;2023-09-30T01:16:39;13.38;;;5.25;;
12151;SDS011;6139;51.274;7.128;2023-09-30T01:17:41;11.63;;;5.55;;
12151;SDS011;6139;51.274;7.128;2023-09-30T01:18:42;8.95;;;4.88;;
12151;SDS011;6139;51.274;7.128;2023-09-30T01:19:43;13.38;;;5.82;;
12151;SDS011;6139;51.274;7.128;2023-09-30T01:20:45;10.60;;;5.25;;
12151;SDS011;6139;51.274;7.128;2023-09-30T01:21:48;12.73;;;5.88;;
12151;SDS011;6139;51.274;7.128;2023-09-30T01:22:50;11.40;;;5.80;;
12151;SDS011;6139;51.274;7.128;2023-09-30T01:23:52;12.65;;;5.28;;
12151;SDS011;6139;51.274;7.128;2023-09-30T01:24:54;8.85;;;4.65;;
12151;SDS011;6139;51.274;7.128;2023-09-30T01:25:55;11.63;;;5.30;;
12151;SDS011;6139;51.274;7.128;2023-09-30T01:26:56;12.25;;;5.32;;
12151;SDS011;6139;51.274;7.128;2023-09-30T01:27:59;10.50;;;5.63;;
12151;SDS011;6139;51.274;7.128;2023-09-30T01:29:00;11.38;;;5.80;;
12151;SDS011;6139;51.274;7.128;2023-09-30T01:30:03;9.05;;;5.00;;
12151;SDS011;6139;51.274;7.128;2023-09-30T01:31:06;13.00;;;6.00;;
12151;SDS011;6139;51.274;7.128;2023-09-30T01:32:09;10.52;;;5.45;;
12151;SDS011;6139;51.274;7.128;2023-09-30T01:33:10;12.60;;;5.60;;
12151;SDS011;6139;51.274;7.128;2023-09-30T01:34:12;9.60;;;5.18;;
12151;SDS011;6139;51.274;7.128;2023-09-30T01:35:14;10.45;;;5.28;;
12151;SDS011;6139;51.274;7.128;2023-09-30T01:36:16;11.65;;;4.97;;
12151;SDS011;6139;51.274;7.128;2023-09-30T01:37:19;11.00;;;5.38;;
12151;SDS011;6139;51.274;7.128;2023-09-30T01:38:21;11.00;;;5.30;;
12151;SDS011;6139;51.274;7.128;2023-09-30T01:39:22;12.60;;;5.43;;
12151;SDS011;6139;51.274;7.128;2023-09-30T01:40:24;9.05;;;5.45;;
12151;SDS011;6139;51.274;7.128;2023-09-30T01:41:25;8.43;;;5.03;;
12151;SDS011;6139;51.274;7.128;2023-09-30T01:42:27;11.27;;;5.60;;
12151;SDS011;6139;51.274;7.128;2023-09-30T01:43:28;11.63;;;5.15;;
12151;SDS011;6139;51.274;7.128;2023-09-30T01:44:30;12.75;;;5.95;;
12151;SDS011;6139;51.274;7.128;2023-09-30T01:45:33;10.43;;;5.80;;
12151;SDS011;6139;51.274;7.128;2023-09-30T01:46:35;10.95;;;6.53;;
12151;SDS011;6139;51.274;7.128;2023-09-30T01:47:36;11.27;;;5.63;;
12151;SDS011;6139;51.274;7.128;2023-09-30T01:48:38;10.95;;;5.30;;
12151;SDS011;6139;51.274;7.128;2023-09-30T01:49:39;12.60;;;5.47;;
12151;SDS011;6139;51.274;7.128;2023-09-30T01:50:41;9.05;;;5.05;;
12151;SDS011;6139;51.274;7.128;2023-09-30T01:51:42;12.18;;;6.03;;
12151;SDS011;6139;51.274;7.128;2023-09-30T01:52:45;9.43;;;6.03;;
12151;SDS011;6139;51.274;7.128;2023-09-30T01:53:46;12.73;;;5.60;;
12151;SDS011;6139;51.274;7.128;2023-09-30T01:54:51;11.88;;;5.50;;
12151;SDS011;6139;51.274;7.128;2023-09-30T01:55:52;11.18;;;5.90;;
12151;SDS011;6139;51.274;7.128;2023-09-30T01:56:54;11.50;;;5.50;;
12151;SDS011;6139;51.274;7.128;2023-09-30T01:57:55;12.35;;;5.88;;
12151;SDS011;6139;51.274;7.128;2023-09-30T01:58:56;11.98;;;6.20;;
12151;SDS011;6139;51.274;7.128;2023-09-30T01:59:59;12.90;;;5.80;;
12151;SDS011;6139;51.274;7.128;2023-09-30T02:01:01;10.98;;;5.22;;
12151;SDS011;6139;51.274;7.128;2023-09-30T02:02:04;13.25;;;6.18;;
12151;SDS011;6139;51.274;7.128;2023-09-30T02:03:05;15.45;;;5.95;;
12151;SDS011;6139;51.274;7.128;2023-09-30T02:04:07;11.73;;;5.95;;
12151;SDS011;6139;51.274;7.128;2023-09-30T02:05:08;12.40;;;6.13;;
12151;SDS011;6139;51.274;7.128;2023-09-30T02:06:09;8.73;;;5.20;;
12151;SDS011;6139;51.274;7.128;2023-09-30T02:07:12;9.48;;;5.57;;
12151;SDS011;6139;51.274;7.128;2023-09-30T02:08:14;9.20;;;4.95;;
12151;SDS011;6139;51.274;7.128;2023-09-30T02:09:18;10.30;;;5.20;;
12151;SDS011;6139;51.274;7.128;2023-09-30T02:10:20;10.18;;;4.93;;
12151;SDS011;6139;51.274;7.128;2023-09-30T02:11:22;8.68;;;5.60;;
12151;SDS011;6139;51.274;7.128;2023-09-30T02:12:23;11.05;;;5.60;;
12151;SDS011;6139;51.274;7.128;2023-09-30T02:13:25;13.52;;;5.50;;
12151;SDS011;6139;51.274;7.128;2023-09-30T02:14:28;11.02;;;5.55;;
12151;SDS011;6139;51.274;7.128;2023-09-30T02:15:31;11.55;;;5.78;;
12151;SDS011;6139;51.274;7.128;2023-09-30T02:16:32;10.35;;;5.45;;
12151;SDS011;6139;51.274;7.128;2023-09-30T02:17:34;13.80;;;5.88;;
12151;SDS011;6139;51.274;7.128;2023-09-30T02:18:35;10.95;;;6.07;;
12151;SDS011;6139;51.274;7.128;2023-09-30T02:19:36;10.82;;;6.13;;
12151;SDS011;6139;51.274;7.128;2023-09-30T02:20:38;10.57;;;5.90;;
12151;SDS011;6139;51.274;7.128;2023-09-30T02:21:40;11.10;;;5.60;;
12151;SDS011;6139;51.274;7.128;2023-09-30T02:22:42;12.30;;;5.80;;
12151;SDS011;6139;51.274;7.128;2023-09-30T02:23:46;13.40;;;5.85;;
12151;SDS011;6139;51.274;7.128;2023-09-30T02:24:48;10.20;;;5.43;;
12151;SDS011;6139;51.274;7.128;2023-09-30T02:25:50;13.93;;;5.65;;
12151;SDS011;6139;51.274;7.128;2023-09-30T02:26:51;12.32;;;6.15;;
12151;SDS011;6139;51.274;7.128;2023-09-30T02:27:52;11.82;;;5.72;;
12151;SDS011;6139;51.274;7.128;2023-09-30T02:28:54;11.88;;;6.00;;
12151;SDS011;6139;51.274;7.128;2023-09-30T02:29:56;14.68;;;5.63;;
12151;SDS011;6139;51.274;7.128;2023-09-30T02:30:58;13.77;;;5.95;;
12151;SDS011;6139;51.274;7.128;2023-09-30T02:31:59;8.70;;;5.75;;
12151;SDS011;6139;51.274;7.128;2023-09-30T02:33:01;11.70;;;6.57;;
12151;SDS011;6139;51.274;7.128;2023-09-30T02:34:03;16.20;;;6.07;;
12151;SDS011;6139;51.274;7.128;2023-09-30T02:35:05;13.93;;;5.90;;
12151;SDS011;6139;51.274;7.128;2023-09-30T02:36:08;8.52;;;5.47;;
12151;SDS011;6139;51.274;7.128;2023-09-30T02:37:10;14.05;;;5.85;;
12151;SDS011;6139;51.274;7.128;2023-09-30T02:38:11;9.18;;;5.28;;
12151;SDS011;6139;51.274;7.128;2023-09-30T02:39:17;11.27;;;5.68;;
12151;SDS011;6139;51.274;7.128;2023-09-30T02:40:18;8.50;;;5.32;;
12151;SDS011;6139;51.274;7.128;2023-09-30T02:41:20;12.57;;;5.40;;
12151;SDS011;6139;51.274;7.128;2023-09-30T02:42:22;12.70;;;6.15;;
12151;SDS011;6139;51.274;7.128;2023-09-30T02:43:25;10.15;;;5.60;;
12151;SDS011;6139;51.274;7.128;2023-09-30T02:44:26;12.13;;;5.80;;
12151;SDS011;6139;51.274;7.128;2023-09-30T02:45:28;10.93;;;5.72;;
12151;SDS011;6139;51.274;7.128;2023-09-30T02:46:29;10.95;;;5.43;;
12151;SDS011;6139;51.274;7.128;2023-09-30T02:47:31;12.07;;;5.75;;
12151;SDS011;6139;51.274;7.128;2023-09-30T02:48:33;9.32;;;5.82;;
12151;SDS011;6139;51.274;7.128;2023-09-30T02:49:35;10.63;;;5.53;;
12151;SDS011;6139;51.274;7.128;2023-09-30T02:50:37;12.70;;;6.10;;
12151;SDS011;6139;51.274;7.128;2023-09-30T02:51:40;13.77;;;6.28;;
12151;SDS011;6139;51.274;7.128;2023-09-30T02:52:41;10.60;;;6.03;;
12151;SDS011;6139;51.274;7.128;2023-09-30T02:53:43;10.75;;;5.63;;
12151;SDS011;6139;51.274;7.128;2023-09-30T02:54:46;14.07;;;6.03;;
12151;SDS011;6139;51.274;7.128;2023-09-30T02:55:49;15.98;;;6.25;;
12151;SDS011;6139;51.274;7.128;2023-09-30T02:56:52;13.40;;;5.90;;
12151;SDS011;6139;51.274;7.128;2023-09-30T02:57:55;12.18;;;6.15;;
12151;SDS011;6139;51.274;7.128;2023-09-30T02:58:56;12.00;;;6.28;;
12151;SDS011;6139;51.274;7.128;2023-09-30T02:59:58;12.50;;;6.10;;
12151;SDS011;6139;51.274;7.128;2023-09-30T03:01:00;13.05;;;6.35;;
12151;SDS011;6139;51.274;7.128;2023-09-30T03:02:01;11.65;;;5.55;;
12151;SDS011;6139;51.274;7.128;2023-09-30T03:03:04;14.80;;;5.95;;
12151;SDS011;6139;51.274;7.128;2023-09-30T03:04:05;11.55;;;5.75;;
12151;SDS011;6139;51.274;7.128;2023-09-30T03:05:09;11.18;;;6.97;;
12151;SDS011;6139;51.274;7.128;2023-09-30T03:06:10;12.40;;;5.47;;
12151;SDS011;6139;51.274;7.128;2023-09-30T03:07:12;11.38;;;6.45;;
12151;SDS011;6139;51.274;7.128;2023-09-30T03:08:14;8.80;;;5.88;;
12151;SDS011;6139;51.274;7.128;2023-09-30T03:09:16;11.32;;;6.38;;
12151;SDS011;6139;51.274;7.128;2023-09-30T03:10:18;10.60;;;5.60;;
12151;SDS011;6139;51.274;7.128;2023-09-30T03:11:23;11.52;;;5.70;;
12151;SDS011;6139;51.274;7.128;2023-09-30T03:12:24;9.98;;;5.47;;
12151;SDS011;6139;51.274;7.128;2023-09-30T03:13:27;12.32;;;5.57;;
12151;SDS011;6139;51.274;7.128;2023-09-30T03:14:28;13.15;;;6.10;;
12151;SDS011;6139;51.274;7.128;2023-09-30T03:15:31;10.15;;;5.63;;
12151;SDS011;6139;51.274;7.128;2023-09-30T03:16:32;11.82;;;6.25;;
12151;SDS011;6139;51.274;7.128;2023-09-30T03:17:39;12.98;;;6.28;;
12151;SDS011;6139;51.274;7.128;2023-09-30T03:18:40;14.25;;;6.22;;
12151;SDS011;6139;51.274;7.128;2023-09-30T03:19:44;10.05;;;6.20;;
12151;SDS011;6139;51.274;7.128;2023-09-30T03:20:45;11.90;;;6.70;;
12151;SDS011;6139;51.274;7.128;2023-09-30T03:21:50;12.27;;;6.03;;
12151;SDS011;6139;51.274;7.128;2023-09-30T03:22:51;11.57;;;5.80;;
12151;SDS011;6139;51.274;7.128;2023-09-30T03:23:53;9.93;;;6.63;;
12151;SDS011;6139;51.274;7.128;2023-09-30T03:24:54;14.32;;;6.60;;
12151;SDS011;6139;51.274;7.128;2023-09-30T03:25:59;9.77;;;5.22;;
12151;SDS011;6139;51.274;7.128;2023-09-30T03:27:00;13.18;;;6.22;;
12151;SDS011;6139;51.274;7.128;2023-09-30T03:28:02;10.90;;;6.30;;
12151;SDS011;6139;51.274;7.128;2023-09-30T03:29:06;10.23;;;5.25;;
12151;SDS011;6139;51.274;7.128;2023-09-30T03:30:09;11.63;;;6.07;;
12151;SDS011;6139;51.274;7.128;2023-09-30T03:31:12;11.43;;;6.00;;
12151;SDS011;6139;51.274;7.128;2023-09-30T03:32:13;11.13;;;5.30;;
12151;SDS011;6139;51.274;7.128;2023-09-30T03:33:14;12.05;;;5.95;;
12151;SDS011;6139;51.274;7.128;2023-09-30T03:34:17;12.32;;;5.55;;
12151;SDS011;6139;51.274;7.128;2023-09-30T03:35:18;12.02;;;6.30;;
12151;SDS011;6139;51.274;7.128;2023-09-30T03:36:21;12.60;;;6.53;;
12151;SDS011;6139;51.274;7.128;2023-09-30T03:37:24;10.15;;;5.93;;
12151;SDS011;6139;51.274;7.128;2023-09-30T03:38:27;11.05;;;6.28;;
12151;SDS011;6139;51.274;7.128;2023-09-30T03:39:28;14.60;;;7.25;;
12151;SDS011;6139;51.274;7.128;2023-09-30T03:40:30;10.68;;;6.05;;
12151;SDS011;6139;51.274;7.128;2023-09-30T03:41:35;18.02;;;6.60;;
12151;SDS011;6139;51.274;7.128;2023-09-30T03:42:37;12.15;;;6.13;;
12151;SDS011;6139;51.274;7.128;2023-09-30T03:43:39;12.35;;;5.45;;
12151;SDS011;6139;51.274;7.128;2023-09-30T03:44:41;12.90;;;5.93;;
12151;SDS011;6139;51.274;7.128;2023-09-30T03:45:43;10.52;;;5.75;;
12151;SDS011;6139;51.274;7.128;2023-09-30T03:46:44;11.60;;;5.53;;
12151;SDS011;6139;51.274;7.128;2023-09-30T03:47:46;13.85;;;6.60;;
12151;SDS011;6139;51.274;7.128;2023-09-30T03:48:48;12.18;;;5.60;;
12151;SDS011;6139;51.274;7.128;2023-09-30T03:49:50;10.45;;;5.82;;
12151;SDS011;6139;51.274;7.128;2023-09-30T03:50:54;15.30;;;5.78;;
12151;SDS011;6139;51.274;7.128;2023-09-30T03:51:56;9.15;;;5.60;;
12151;SDS011;6139;51.274;7.128;2023-09-30T03:53:00;10.82;;;5.55;;
12151;SDS011;6139;51.274;7.128;2023-09-30T03:54:03;12.43;;;5.82;;
12151;SDS011;6139;51.274;7.128;2023-09-30T03:55:04;10.65;;;5.72;;
12151;SDS011;6139;51.274;7.128;2023-09-30T03:56:06;13.07;;;5.78;;
12151;SDS011;6139;51.274;7.128;2023-09-30T03:57:09;14.27;;;5.93;;
12151;SDS011;6139;51.274;7.128;2023-09-30T03:58:12;8.40;;;4.90;;
12151;SDS011;6139;51.274;7.128;2023-09-30T03:59:15;10.82;;;6.05;;
12151;SDS011;6139;51.274;7.128;2023-09-30T04:00:16;9.27;;;5.57;;
12151;SDS011;6139;51.274;7.128;2023-09-30T04:01:19;13.77;;;5.60;;
12151;SDS011;6139;51.274;7.128;2023-09-30T04:02:21;11.75;;;5.90;;
12151;SDS011;6139;51.274;7.128;2023-09-30T04:03:22;11.43;;;5.72;;
12151;SDS011;6139;51.274;7.128;2023-09-30T04:04:23;11.40;;;5.22;;
12151;SDS011;6139;51.274;7.128;2023-09-30T04:05:25;13.68;;;5.75;;
12151;SDS011;6139;51.274;7.128;2023-09-30T04:06:30;10.13;;;6.00;;
12151;SDS011;6139;51.274;7.128;2023-09-30T04:07:32;8.18;;;5.18;;
12151;SDS011;6139;51.274;7.128;2023-09-30T04:08:33;10.73;;;5.20;;
12151;SDS011;6139;51.274;7.128;2023-09-30T04:09:34;8.85;;;5.47;;
12151;SDS011;6139;51.274;7.128;2023-09-30T04:10:36;9.50;;;4.90;;
12151;SDS011;6139;51.274;7.128;2023-09-30T04:11:37;8.77;;;5.38;;
12151;SDS011;6139;51.274;7.128;2023-09-30T04:12:41;10.77;;;5.57;;
12151;SDS011;6139;51.274;7.128;2023-09-30T04:13:42;9.15;;;5.40;;
12151;SDS011;6139;51.274;7.128;2023-09-30T04:14:44;9.90;;;5.65;;
12151;SDS011;6139;51.274;7.128;2023-09-30T04:15:45;11.60;;;5.50;;
12151;SDS011;6139;51.274;7.128;2023-09-30T04:16:49;10.63;;;5.43;;
12151;SDS011;6139;51.274;7.128;2023-09-30T04:17:50;9.25;;;4.70;;
12151;SDS011;6139;51.274;7.128;2023-09-30T04:18:53;11.60;;;5.38;;
12151;SDS011;6139;51.274;7.128;2023-09-30T04:19:53;12.45;;;6.20;;
12151;SDS011;6139;51.274;7.128;2023-09-30T04:20:55;9.07;;;4.63;;
12151;SDS011;6139;51.274;7.128;2023-09-30T04:21:57;13.80;;;5.57;;
12151;SDS011;6139;51.274;7.128;2023-09-30T04:22:59;12.63;;;5.47;;
12151;SDS011;6139;51.274;7.128;2023-09-30T04:24:02;9.98;;;4.93;;
12151;SDS011;6139;51.274;7.128;2023-09-30T04:25:06;14.77;;;5.50;;
12151;SDS011;6139;51.274;7.128;2023-09-30T04:26:09;9.35;;;5.30;;
12151;SDS011;6139;51.274;7.128;2023-09-30T04:27:11;11.48;;;5.28;;
12151;SDS011;6139;51.274;7.128;2023-09-30T04:28:13;12.25;;;5.45;;
12151;SDS011;6139;51.274;7.128;2023-09-30T04:29:16;10.23;;;4.72;;
12151;SDS011;6139;51.274;7.128;2023-09-30T04:30:17;13.65;;;5.75;;
12151;SDS011;6139;51.274;7.128;2023-09-30T04:31:19;9.20;;;4.97;;
12151;SDS011;6139;51.274;7.128;2023-09-30T04:32:21;10.88;;;5.38;;
12151;SDS011;6139;51.274;7.128;2023-09-30T04:33:26;13.05;;;5.53;;
12151;SDS011;6139;51.274;7.128;2023-09-30T04:34:27;12.90;;;5.57;;
12151;SDS011;6139;51.274;7.128;2023-09-30T04:35:28;10.15;;;5.93;;
12151;SDS011;6139;51.274;7.128;2023-09-30T04:36:31;12.20;;;5.47;;
12151;SDS011;6139;51.274;7.128;2023-09-30T04:37:35;10.82;;;5.65;;
12151;SDS011;6139;51.274;7.128;2023-09-30T04:38:37;12.95;;;6.18;;
12151;SDS011;6139;51.274;7.128;2023-09-30T04:39:39;11.73;;;5.88;;
12151;SDS011;6139;51.274;7.128;2023-09-30T04:40:40;16.50;;;6.38;;
12151;SDS011;6139;51.274;7.128;2023-09-30T04:41:44;17.42;;;6.43;;
12151;SDS011;6139;51.274;7.128;2023-09-30T04:42:48;12.48;;;5.82;;
12151;SDS011;6139;51.274;7.128;2023-09-30T04:43:51;13.68;;;6.38;;
12151;SDS011;6139;51.274;7.128;2023-09-30T04:44:53;12.68;;;6.45;;
12151;SDS011;6139;51.274;7.128;2023-09-30T04:45:55;14.05;;;6.80;;
12151;SDS011;6139;51.274;7.128;2023-09-30T04:46:58;13.75;;;6.63;;
12151;SDS011;6139;51.274;7.128;2023-09-30T04:48:00;14.52;;;6.88;;
12151;SDS011;6139;51.274;7.128;2023-09-30T04:49:02;14.95;;;6.65;;
12151;SDS011;6139;51.274;7.128;2023-09-30T04:50:05;15.48;;;7.20;;
12151;SDS011;6139;51.274;7.128;2023-09-30T04:51:08;13.48;;;7.53;;
12151;SDS011;6139;51.274;7.128;2023-09-30T04:52:11;13.38;;;6.88;;
12151;SDS011;6139;51.274;7.128;2023-09-30T04:53:12;16.65;;;7.32;;
12151;SDS011;6139;51.274;7.128;2023-09-30T04:54:14;15.20;;;7.53;;
12151;SDS011;6139;51.274;7.128;2023-09-30T04:55:15;11.65;;;7.35;;
12151;SDS011;6139;51.274;7.128;2023-09-30T04:56:16;15.23;;;7.82;;
12151;SDS011;6139;51.274;7.128;2023-09-30T04:57:18;13.00;;;7.32;;
12151;SDS011;6139;51.274;7.128;2023-09-30T04:58:19;14.60;;;7.38;;
12151;SDS011;6139;51.274;7.128;2023-09-30T04:59:22;15.43;;;7.70;;
12151;SDS011;6139;51.274;7.128;2023-09-30T05:00:25;14.68;;;8.88;;
12151;SDS011;6139;51.274;7.128;2023-09-30T05:01:26;20.20;;;9.43;;
12151;SDS011;6139;51.274;7.128;2023-09-30T05:02:29;14.60;;;8.13;;
12151;SDS011;6139;51.274;7.128;2023-09-30T05:03:30;19.27;;;9.98;;
12151;SDS011;6139;51.274;7.128;2023-09-30T05:04:32;14.52;;;9.55;;
12151;SDS011;6139;51.274;7.128;2023-09-30T05:05:33;18.42;;;9.63;;
12151;SDS011;6139;51.274;7.128;2023-09-30T05:06:35;18.33;;;11.20;;
12151;SDS011;6139;51.274;7.128;2023-09-30T05:07:36;14.48;;;10.82;;
12151;SDS011;6139;51.274;7.128;2023-09-30T05:08:38;18.05;;;10.82;;
12151;SDS011;6139;51.274;7.128;2023-09-30T05:09:39;18.02;;;10.75;;
12151;SDS011;6139;51.274;7.128;2023-09-30T05:10:41;20.13;;;10.88;;
12151;SDS011;6139;51.274;7.128;2023-09-30T05:11:42;20.80;;;12.60;;
12151;SDS011;6139;51.274;7.128;2023-09-30T05:12:44;20.38;;;11.57;;
12151;SDS011;6139;51.274;7.128;2023-09-30T05:13:46;19.52;;;12.63;;
12151;SDS011;6139;51.274;7.128;2023-09-30T05:14:49;24.20;;;13.07;;
12151;SDS011;6139;51.274;7.128;2023-09-30T05:15:50;19.83;;;12.43;;
12151;SDS011;6139;51.274;7.128;2023-09-30T05:16:51;23.52;;;13.50;;
12151;SDS011;6139;51.274;7.128;2023-09-30T05:17:53;22.27;;;12.68;;
12151;SDS011;6139;51.274;7.128;2023-09-30T05:18:54;18.48;;;12.75;;
12151;SDS011;6139;51.274;7.128;2023-09-30T05:19:56;20.00;;;12.63;;
12151;SDS011;6139;51.274;7.128;2023-09-30T05:20:57;20.80;;;12.75;;
12151;SDS011;6139;51.274;7.128;2023-09-30T05:22:00;20.58;;;12.35;;
12151;SDS011;6139;51.274;7.128;2023-09-30T05:23:01;22.08;;;13.75;;
12151;SDS011;6139;51.274;7.128;2023-09-30T05:24:04;20.25;;;13.23;;
12151;SDS011;6139;51.274;7.128;2023-09-30T05:25:06;19.58;;;13.45;;
12151;SDS011;6139;51.274;7.128;2023-09-30T05:26:08;28.35;;;12.25;;
12151;SDS011;6139;51.274;7.128;2023-09-30T05:27:09;31.05;;;12.20;;
12151;SDS011;6139;51.274;7.128;2023-09-30T05:28:11;20.35;;;12.55;;
12151;SDS011;6139;51.274;7.128;2023-09-30T05:29:13;26.40;;;13.25;;
12151;SDS011;6139;51.274;7.128;2023-09-30T05:30:18;26.10;;;13.25;;
12151;SDS011;6139;51.274;7.128;2023-09-30T05:31:20;19.52;;;12.55;;
12151;SDS011;6139;51.274;7.128;2023-09-30T05:32:22;88.38;;;15.30;;
12151;SDS011;6139;51.274;7.128;2023-09-30T05:33:23;16.95;;;11.77;;
12151;SDS011;6139;51.274;7.128;2023-09-30T05:34:24;20.98;;;13.40;;
12151;SDS011;6139;51.274;7.128;2023-09-30T05:35:26;19.42;;;14.13;;
12151;SDS011;6139;51.274;7.128;2023-09-30T05:36:28;19.45;;;13.57;;
12151;SDS011;6139;51.274;7.128;2023-09-30T05:37:30;23.20;;;13.27;;
12151;SDS011;6139;51.274;7.128;2023-09-30T05:38:31;22.75;;;13.02;;
12151;SDS011;6139;51.274;7.128;2023-09-30T05:39:34;24.73;;;13.48;;
12151;SDS011;6139;51.274;7.128;2023-09-30T05:40:35;21.70;;;14.07;;
12151;SDS011;6139;51.274;7.128;2023-09-30T05:41:36;32.80;;;13.80;;
12151;SDS011;6139;51.274;7.128;2023-09-30T05:42:38;33.38;;;12.68;;
12151;SDS011;6139;51.274;7.128;2023-09-30T05:43:39;28.27;;;12.63;;
12151;SDS011;6139;51.274;7.128;2023-09-30T05:44:42;22.38;;;11.77;;
12151;SDS011;6139;51.274;7.128;2023-09-30T05:45:45;32.83;;;11.60;;
12151;SDS011;6139;51.274;7.128;2023-09-30T05:46:49;18.63;;;13.43;;
12151;SDS011;6139;51.274;7.128;2023-09-30T05:47:51;19.60;;;13.43;;
12151;SDS011;6139;51.274;7.128;2023-09-30T05:48:52;25.60;;;13.65;;
12151;SDS011;6139;51.274;7.128;2023-09-30T05:49:54;21.27;;;13.95;;
12151;SDS011;6139;51.274;7.128;2023-09-30T05:50:55;23.00;;;12.65;;
12151;SDS011;6139;51.274;7.128;2023-09-30T05:51:57;20.23;;;14.10;;
12151;SDS011;6139;51.274;7.128;2023-09-30T05:52:58;24.02;;;15.35;;
12151;SDS011;6139;51.274;7.128;2023-09-30T05:54:00;22.50;;;14.60;;
12151;SDS011;6139;51.274;7.128;2023-09-30T05:55:01;22.10;;;14.10;;
12151;SDS011;6139;51.274;7.128;2023-09-30T05:56:04;43.78;;;12.05;;
12151;SDS011;6139;51.274;7.128;2023-09-30T05:57:05;25.63;;;12.73;;
12151;SDS011;6139;51.274;7.128;2023-09-30T05:58:09;17.75;;;12.27;;
12151;SDS011;6139;51.274;7.128;2023-09-30T05:59:10;16.30;;;10.73;;
12151;SDS011;6139;51.274;7.128;2023-09-30T06:00:13;24.02;;;12.20;;
12151;SDS011;6139;51.274;7.128;2023-09-30T06:01:30;17.52;;;12.27;;
12151;SDS011;6139;51.274;7.128;2023-09-30T06:02:32;20.85;;;13.13;;
12151;SDS011;6139;51.274;7.128;2023-09-30T06:03:35;19.23;;;11.38;;
12151;SDS011;6139;51.274;7.128;2023-09-30T06:04:39;17.38;;;11.80;;
12151;SDS011;6139;51.274;7.128;2023-09-30T06:05:41;24.70;;;12.13;;
12151;SDS011;6139;51.274;7.128;2023-09-30T06:06:43;15.90;;;12.40;;
12151;SDS011;6139;51.274;7.128;2023-09-30T06:07:44;17.38;;;12.45;;
12151;SDS011;6139;51.274;7.128;2023-09-30T06:08:45;29.98;;;9.55;;
12151;SDS011;6139;51.274;7.128;2023-09-30T06:09:47;28.58;;;8.65;;
12151;SDS011;6139;51.274;7.128;2023-09-30T06:10:50;13.18;;;8.68;;
12151;SDS011;6139;51.274;7.128;2023-09-30T06:11:51;27.90;;;9.68;;
12151;SDS011;6139;51.274;7.128;2023-09-30T06:12:52;11.77;;;9.70;;
12151;SDS011;6139;51.274;7.128;2023-09-30T06:13:56;36.28;;;9.13;;
12151;SDS011;6139;51.274;7.128;2023-09-30T06:15:00;25.77;;;9.30;;